Azteca — V7SS3 — position and weather

sailwx.info

Track history (hours):
 
Tides and Currents Weather Stations Pressure Air Temp Water Temp Dewpoint Dewpoint Depression Visibility Wind Speed Wind Dir Waves Ship Positions

Azteca

Last reported at 2017-Aug-28 19:00 UTC. Time now 2017-Sep-26 11:11 UTC.
Position N 41°22' E 002°11'.
Warning: this ship's position is 28 days out of date.

Length 72 m; draft 3.6 m.

Type: Pleasure craft. MMSI: 538071151.

Date/timePositionNaut miles runAvg speedWind from/ knotsBaromVisibWave heightAir tempDewpointWater temp
2017-Aug-28 19:00N 41°22' E 002°11'1 1.9
2017-Aug-28 18:29N 41°21' E 002°11'5 9.6
2017-Aug-28 17:56N 41°21' E 002°18'611.0
2017-Aug-28 17:21N 41°24' E 002°26'3 5.3
2017-Aug-28 16:42N 41°21' E 002°23'415.8
2017-Aug-28 16:27N 41°18' E 002°26'10 3.2
2017-Aug-28 13:18N 41°21' E 002°14'515.0
2017-Aug-28 13:00N 41°18' E 002°19'815.1
2017-Aug-28 12:29N 41°15' E 002°28'715.1
2017-Aug-28 12:00N 41°12' E 002°36'815.1
2017-Aug-28 11:30N 41°08' E 002°46'815.7
2017-Aug-28 11:00N 41°05' E 002°55'815.6
2017-Aug-28 10:30N 41°02' E 003°04'1715.6
2017-Aug-28 09:25N 40°56' E 003°26'4514.8
2017-Aug-28 06:21N 40°33' E 004°17'614.8
2017-Aug-28 05:56N 40°30' E 004°24'714.6
2017-Aug-28 05:29N 40°27' E 004°32'714.8
2017-Aug-28 05:00N 40°23' E 004°40'714.8
2017-Aug-28 04:30N 40°20' E 004°48'3814.7
2017-Aug-28 01:55N 40°03' E 005°33'2314.7
2017-Aug-28 00:21N 39°52' E 005°60'514.7
2017-Aug-28 00:00N 39°50' E 006°06'3314.9
2017-Aug-27 21:48N 39°35' E 006°44'1615.0
2017-Aug-27 20:45N 39°27' E 007°02'415.0
2017-Aug-27 20:30N 39°26' E 007°06'5615.0
2017-Aug-27 16:48N 39°00' E 008°10'814.9
2017-Aug-27 16:17N 38°57' E 008°18'615.0
2017-Aug-27 15:52N 38°54' E 008°25'615.3
2017-Aug-27 15:30N 38°51' E 008°32'815.0
2017-Aug-27 15:00N 38°48' E 008°41'815.1
2017-Aug-27 14:30N 38°45' E 008°50'815.2
2017-Aug-27 14:00N 38°42' E 008°58'815.1
2017-Aug-27 13:30N 38°39' E 009°07'815.1
2017-Aug-27 13:00N 38°36' E 009°16'715.0
2017-Aug-27 12:30N 38°33' E 009°25'715.0
2017-Aug-27 12:00N 38°30' E 009°34'815.1
2017-Aug-27 11:30N 38°26' E 009°42'815.2
2017-Aug-27 10:59N 38°23' E 009°51'715.3
2017-Aug-27 10:30N 38°20' E 009°60'815.1
2017-Aug-27 10:00N 38°17' E 010°09'815.0
2017-Aug-27 09:30N 38°14' E 010°18'714.8
2017-Aug-27 09:00N 38°11' E 010°26'714.8
2017-Aug-27 08:30N 38°08' E 010°35'712.6
2017-Aug-27 07:57N 38°05' E 010°43'5214.4
2017-Aug-27 04:20N 37°43' E 011°43'3714.3
2017-Aug-27 01:44N 37°26' E 012°24'414.5
2017-Aug-27 01:30N 37°24' E 012°28'714.3
2017-Aug-27 01:00N 37°22' E 012°36'714.5
2017-Aug-27 00:30N 37°20' E 012°45'714.0
2017-Aug-27 00:00N 37°17' E 012°53'714.0
2017-Aug-26 23:29N 37°14' E 013°01'2314.0
2017-Aug-26 21:50N 37°05' E 013°28'614.4
2017-Aug-26 21:28N 37°03' E 013°34'714.2
2017-Aug-26 20:58N 37°00' E 013°42'713.9
2017-Aug-26 20:29N 36°57' E 013°50'714.0
2017-Aug-26 20:00N 36°55' E 013°58'713.8
2017-Aug-26 19:30N 36°52' E 014°06'713.8
2017-Aug-26 19:00N 36°49' E 014°13'713.9
2017-Aug-26 18:31N 36°46' E 014°21'714.2
2017-Aug-26 18:00N 36°44' E 014°30'714.3
2017-Aug-26 17:30N 36°41' E 014°38'714.0
2017-Aug-26 17:00N 36°37' E 014°45'714.3
2017-Aug-26 16:30N 36°34' E 014°53'714.6
2017-Aug-26 16:00N 36°33' E 015°02'714.5
2017-Aug-26 15:30N 36°33' E 015°11'714.2
2017-Aug-26 15:00N 36°33' E 015°20'1514.7
2017-Aug-26 14:00N 36°32' E 015°38'11314.5
2017-Aug-26 06:15N 36°29' E 017°59'414.7
2017-Aug-26 05:57N 36°29' E 018°04'  
Track history (hours):
 
Tides and Currents Weather Stations Pressure Air Temp Water Temp Dewpoint Dewpoint Depression Visibility Wind Speed Wind Dir Waves Ship Positions

Azteca

Last reported at 2017-Aug-28 19:00 UTC. Time now 2017-Sep-26 11:11 UTC.
Position N 41°22' E 002°11'.
Warning: this ship's position is 28 days out of date.

Length 72 m; draft 3.6 m.

Type: Pleasure craft. MMSI: 538071151.

Date/timePositionNaut miles runAvg speedWind from/ knotsBaromVisibWave heightAir tempDewpointWater temp
2017-Aug-28 19:00N 41°22' E 002°11'1 1.9
2017-Aug-28 18:29N 41°21' E 002°11'5 9.6
2017-Aug-28 17:56N 41°21' E 002°18'611.0
2017-Aug-28 17:21N 41°24' E 002°26'3 5.3
2017-Aug-28 16:42N 41°21' E 002°23'415.8
2017-Aug-28 16:27N 41°18' E 002°26'10 3.2
2017-Aug-28 13:18N 41°21' E 002°14'515.0
2017-Aug-28 13:00N 41°18' E 002°19'815.1
2017-Aug-28 12:29N 41°15' E 002°28'715.1
2017-Aug-28 12:00N 41°12' E 002°36'815.1
2017-Aug-28 11:30N 41°08' E 002°46'815.7
2017-Aug-28 11:00N 41°05' E 002°55'815.6
2017-Aug-28 10:30N 41°02' E 003°04'1715.6
2017-Aug-28 09:25N 40°56' E 003°26'4514.8
2017-Aug-28 06:21N 40°33' E 004°17'614.8
2017-Aug-28 05:56N 40°30' E 004°24'714.6
2017-Aug-28 05:29N 40°27' E 004°32'714.8
2017-Aug-28 05:00N 40°23' E 004°40'714.8
2017-Aug-28 04:30N 40°20' E 004°48'3814.7
2017-Aug-28 01:55N 40°03' E 005°33'2314.7
2017-Aug-28 00:21N 39°52' E 005°60'514.7
2017-Aug-28 00:00N 39°50' E 006°06'3314.9
2017-Aug-27 21:48N 39°35' E 006°44'1615.0
2017-Aug-27 20:45N 39°27' E 007°02'415.0
2017-Aug-27 20:30N 39°26' E 007°06'5615.0
2017-Aug-27 16:48N 39°00' E 008°10'814.9
2017-Aug-27 16:17N 38°57' E 008°18'615.0
2017-Aug-27 15:52N 38°54' E 008°25'615.3
2017-Aug-27 15:30N 38°51' E 008°32'815.0
2017-Aug-27 15:00N 38°48' E 008°41'815.1
2017-Aug-27 14:30N 38°45' E 008°50'815.2
2017-Aug-27 14:00N 38°42' E 008°58'815.1
2017-Aug-27 13:30N 38°39' E 009°07'815.1
2017-Aug-27 13:00N 38°36' E 009°16'715.0
2017-Aug-27 12:30N 38°33' E 009°25'715.0
2017-Aug-27 12:00N 38°30' E 009°34'815.1
2017-Aug-27 11:30N 38°26' E 009°42'815.2
2017-Aug-27 10:59N 38°23' E 009°51'715.3
2017-Aug-27 10:30N 38°20' E 009°60'815.1
2017-Aug-27 10:00N 38°17' E 010°09'815.0
2017-Aug-27 09:30N 38°14' E 010°18'714.8
2017-Aug-27 09:00N 38°11' E 010°26'714.8
2017-Aug-27 08:30N 38°08' E 010°35'712.6
2017-Aug-27 07:57N 38°05' E 010°43'5214.4
2017-Aug-27 04:20N 37°43' E 011°43'3714.3
2017-Aug-27 01:44N 37°26' E 012°24'414.5
2017-Aug-27 01:30N 37°24' E 012°28'714.3
2017-Aug-27 01:00N 37°22' E 012°36'714.5
2017-Aug-27 00:30N 37°20' E 012°45'714.0
2017-Aug-27 00:00N 37°17' E 012°53'714.0
2017-Aug-26 23:29N 37°14' E 013°01'2314.0
2017-Aug-26 21:50N 37°05' E 013°28'614.4
2017-Aug-26 21:28N 37°03' E 013°34'714.2
2017-Aug-26 20:58N 37°00' E 013°42'713.9
2017-Aug-26 20:29N 36°57' E 013°50'714.0
2017-Aug-26 20:00N 36°55' E 013°58'713.8
2017-Aug-26 19:30N 36°52' E 014°06'713.8
2017-Aug-26 19:00N 36°49' E 014°13'713.9
2017-Aug-26 18:31N 36°46' E 014°21'714.2
2017-Aug-26 18:00N 36°44' E 014°30'714.3
2017-Aug-26 17:30N 36°41' E 014°38'714.0
2017-Aug-26 17:00N 36°37' E 014°45'714.3
2017-Aug-26 16:30N 36°34' E 014°53'714.6
2017-Aug-26 16:00N 36°33' E 015°02'714.5
2017-Aug-26 15:30N 36°33' E 015°11'714.2
2017-Aug-26 15:00N 36°33' E 015°20'1514.7
2017-Aug-26 14:00N 36°32' E 015°38'11314.5
2017-Aug-26 06:15N 36°29' E 017°59'414.7
2017-Aug-26 05:57N 36°29' E 018°04'  

Dump ship's entire track history